createdAt,value
2017-03-19T00:00:01.819Z,66.2
2017-03-19T00:00:42.409Z,66.2
2017-03-19T00:01:22.988Z,66.01
2017-03-19T00:02:03.587Z,65.91
2017-03-19T00:02:44.271Z,66.01
2017-03-19T00:03:24.849Z,66.1
2017-03-19T00:04:05.434Z,66.1
2017-03-19T00:04:46.051Z,66.1
2017-03-19T00:05:26.631Z,66.39
2017-03-19T00:06:07.233Z,66.39
2017-03-19T00:06:47.856Z,66.01
2017-03-19T00:07:28.422Z,66.2
2017-03-19T00:08:09.012Z,66.58
2017-03-19T00:08:49.593Z,66.39
2017-03-19T00:09:30.205Z,66.1
2017-03-19T00:10:10.821Z,66.1
2017-03-19T00:10:51.384Z,66.2
2017-03-19T00:11:31.958Z,66.67
2017-03-19T00:12:12.556Z,66.77
2017-03-19T00:12:53.137Z,66.86
2017-03-19T00:13:33.705Z,66.77
2017-03-19T00:14:14.282Z,66.86
2017-03-19T00:14:54.856Z,66.29
2017-03-19T00:15:35.418Z,66.58
2017-03-19T00:16:16.014Z,66.48
2017-03-19T00:16:56.665Z,66.39
2017-03-19T00:17:37.251Z,67.05
2017-03-19T00:18:17.836Z,66.67
2017-03-19T00:18:58.422Z,66.77
2017-03-19T00:19:39.004Z,66.96
2017-03-19T00:20:19.595Z,66.2
2017-03-19T00:21:00.204Z,66.58
2017-03-19T00:21:40.793Z,66.67
2017-03-19T00:22:21.432Z,66.48
2017-03-19T00:23:01.993Z,66.39
2017-03-19T00:23:42.589Z,66.39
2017-03-19T00:24:23.228Z,66.58
2017-03-19T00:25:03.877Z,66.29
2017-03-19T00:25:44.447Z,66.77
2017-03-19T00:26:25.075Z,66.48
2017-03-19T00:27:05.609Z,66.86
2017-03-19T00:27:46.206Z,67.05
2017-03-19T00:28:26.806Z,66.77
2017-03-19T00:29:07.390Z,66.77
2017-03-19T00:29:47.981Z,66.39
2017-03-19T00:30:28.623Z,66.39
2017-03-19T00:31:09.223Z,66.39
2017-03-19T00:31:49.822Z,66.39
2017-03-19T00:32:30.433Z,66.29
2017-03-19T00:33:11.008Z,66.67
2017-03-19T00:33:51.584Z,66.67
2017-03-19T00:34:32.172Z,66.58
2017-03-19T00:35:12.806Z,67.14
2017-03-19T00:35:53.401Z,66.86
2017-03-19T00:36:33.979Z,67.14
2017-03-19T00:37:14.582Z,66.86
2017-03-19T00:37:55.152Z,67.05
2017-03-19T00:38:35.740Z,66.96
2017-03-19T00:39:16.313Z,67.05
2017-03-19T00:39:56.887Z,67.05
2017-03-19T00:40:37.579Z,67.33
2017-03-19T00:41:18.176Z,67.14
2017-03-19T00:41:58.759Z,67.05
2017-03-19T00:42:39.350Z,66.96
2017-03-19T00:43:19.996Z,66.96
2017-03-19T00:44:00.621Z,66.96
2017-03-19T00:44:41.229Z,66.96
2017-03-19T00:45:21.800Z,66.96
2017-03-19T00:46:02.394Z,66.86
2017-03-19T00:46:42.983Z,67.14
2017-03-19T00:47:23.583Z,67.05
2017-03-19T00:48:04.156Z,66.96
2017-03-19T00:48:44.749Z,67.05
2017-03-19T00:49:25.359Z,66.96
2017-03-19T00:50:05.946Z,66.86
2017-03-19T00:50:46.537Z,67.24
2017-03-19T00:51:27.117Z,67.14
2017-03-19T00:52:07.717Z,67.05
2017-03-19T00:52:48.292Z,67.05
2017-03-19T00:53:28.921Z,67.24
2017-03-19T00:54:09.509Z,66.86
2017-03-19T00:54:50.098Z,67.05
2017-03-19T00:55:30.699Z,67.05
2017-03-19T00:56:11.264Z,67.24
2017-03-19T00:56:51.861Z,67.05
2017-03-19T00:57:32.462Z,67.14
2017-03-19T00:58:13.041Z,67.14
2017-03-19T00:58:53.695Z,67.05
2017-03-19T00:59:34.299Z,67.05
2017-03-19T01:00:14.922Z,67.14
2017-03-19T01:00:55.565Z,66.96
2017-03-19T01:01:36.121Z,67.43
2017-03-19T01:02:16.722Z,67.62
2017-03-19T01:02:57.307Z,67.62
2017-03-19T01:03:37.982Z,67.62
2017-03-19T01:04:18.581Z,67.71
2017-03-19T01:04:59.198Z,67.71
2017-03-19T01:05:39.806Z,67.62
2017-03-19T01:06:20.380Z,67.62
2017-03-19T01:07:01.003Z,67.62
2017-03-19T01:07:41.576Z,67.62
2017-03-19T01:08:22.186Z,67.71
2017-03-19T01:09:02.764Z,67.43
2017-03-19T01:09:43.385Z,67.52
2017-03-19T01:10:23.977Z,67.62
2017-03-19T01:11:04.584Z,67.52
2017-03-19T01:11:45.175Z,67.62
2017-03-19T01:12:25.761Z,67.71
2017-03-19T01:13:06.347Z,67.52
2017-03-19T01:13:46.931Z,67.52
2017-03-19T01:14:27.529Z,67.43
2017-03-19T01:15:08.103Z,67.52
2017-03-19T01:15:48.762Z,67.52
2017-03-19T01:16:29.322Z,67.43
2017-03-19T01:17:09.931Z,67.24
2017-03-19T01:17:50.524Z,67.62
2017-03-19T01:18:31.108Z,67.62
2017-03-19T01:19:11.686Z,67.33
2017-03-19T01:19:52.314Z,67.62
2017-03-19T01:20:32.853Z,67.62
2017-03-19T01:21:13.456Z,67.62
2017-03-19T01:21:54.025Z,67.62
2017-03-19T01:22:34.658Z,67.52
2017-03-19T01:23:15.265Z,67.62
2017-03-19T01:23:55.871Z,67.43
2017-03-19T01:24:36.450Z,67.24
2017-03-19T01:25:17.029Z,67.24
2017-03-19T01:25:57.679Z,67.52
2017-03-19T01:26:38.257Z,67.62
2017-03-19T01:27:18.822Z,67.62
2017-03-19T01:27:59.421Z,67.43
2017-03-19T01:28:40.021Z,67.33
2017-03-19T01:29:20.582Z,67.43
2017-03-19T01:30:01.171Z,67.43
2017-03-19T01:30:41.758Z,67.33
2017-03-19T01:31:22.334Z,67.33
2017-03-19T01:32:02.896Z,67.52
2017-03-19T01:32:43.524Z,67.43
2017-03-19T01:33:24.086Z,67.52
2017-03-19T01:34:04.657Z,67.43
2017-03-19T01:34:45.242Z,67.43
2017-03-19T01:35:25.815Z,67.71
2017-03-19T01:36:06.432Z,67.62
2017-03-19T01:36:47.025Z,67.62
2017-03-19T01:37:27.627Z,67.43
2017-03-19T01:38:08.218Z,67.24
2017-03-19T01:38:48.818Z,67.62
2017-03-19T01:39:29.428Z,67.33
2017-03-19T01:40:09.992Z,67.52
2017-03-19T01:40:50.558Z,67.81
2017-03-19T01:41:31.143Z,67.81
2017-03-19T01:42:11.703Z,67.62
2017-03-19T01:42:52.290Z,67.52
2017-03-19T01:43:32.872Z,67.81
2017-03-19T01:44:13.447Z,68.1
2017-03-19T01:44:54.030Z,68
2017-03-19T01:45:34.618Z,67.9
2017-03-19T01:46:15.215Z,67.9
2017-03-19T01:46:55.827Z,68.48
2017-03-19T01:47:36.420Z,68.66
2017-03-19T01:48:17.009Z,68.66
2017-03-19T01:48:57.596Z,68.38
2017-03-19T01:49:38.172Z,68.48
2017-03-19T01:50:18.785Z,68.48
2017-03-19T01:50:59.379Z,68.48
2017-03-19T01:51:39.986Z,68.48
2017-03-19T01:52:20.584Z,68.66
2017-03-19T01:53:01.155Z,68.57
2017-03-19T01:53:41.748Z,68.57
2017-03-19T01:54:22.347Z,68.38
2017-03-19T01:55:02.955Z,68.38
2017-03-19T01:55:43.534Z,68.48
2017-03-19T01:56:24.184Z,68.38
2017-03-19T01:57:04.760Z,68.57
2017-03-19T01:57:45.354Z,68.66
2017-03-19T01:58:25.928Z,68.57
2017-03-19T01:59:06.524Z,68.48
2017-03-19T01:59:47.126Z,68.48
2017-03-19T02:00:27.692Z,68.66
2017-03-19T02:01:08.275Z,68.85
2017-03-19T02:01:48.862Z,69.23
2017-03-19T02:02:29.705Z,68.95
2017-03-19T02:03:10.280Z,68.38
2017-03-19T02:03:50.903Z,68.66
2017-03-19T02:04:31.505Z,69.33
2017-03-19T02:05:12.080Z,69.13
2017-03-19T02:05:52.666Z,68.85
2017-03-19T02:06:33.242Z,68.76
2017-03-19T02:07:13.863Z,69.13
2017-03-19T02:07:54.478Z,68.76
2017-03-19T02:08:35.104Z,69.13
2017-03-19T02:09:15.669Z,69.23
2017-03-19T02:09:56.257Z,69.13
2017-03-19T02:10:36.835Z,68.66
2017-03-19T02:11:17.419Z,68.66
2017-03-19T02:11:58.004Z,68.57
2017-03-19T02:12:38.609Z,68.57
2017-03-19T02:13:19.211Z,68.76
2017-03-19T02:13:59.795Z,68.48
2017-03-19T02:14:40.408Z,69.23
2017-03-19T02:15:20.991Z,69.42
2017-03-19T02:16:01.590Z,69.13
2017-03-19T02:16:42.174Z,69.13
2017-03-19T02:17:22.820Z,68.85
2017-03-19T02:18:03.374Z,69.04
2017-03-19T02:18:43.994Z,68.85
2017-03-19T02:19:24.578Z,69.23
2017-03-19T02:20:05.207Z,69.33
2017-03-19T02:20:45.785Z,69.04
2017-03-19T02:21:26.391Z,69.13
2017-03-19T02:22:07.021Z,69.23
2017-03-19T02:22:47.623Z,69.33
2017-03-19T02:23:28.189Z,69.23
2017-03-19T02:24:08.792Z,68.66
2017-03-19T02:24:49.394Z,69.33
2017-03-19T02:25:29.965Z,69.04
2017-03-19T02:26:10.557Z,69.1
2017-03-19T02:26:51.139Z,68.82
2017-03-19T02:27:31.801Z,69.23
2017-03-19T02:28:12.456Z,68.85
2017-03-19T02:28:53.078Z,68.95
2017-03-19T02:29:33.657Z,69.42
2017-03-19T02:30:14.258Z,69.13
2017-03-19T02:30:54.852Z,68.54
2017-03-19T02:31:35.440Z,68.82
2017-03-19T02:32:16.033Z,69.2
2017-03-19T02:32:56.617Z,68.76
2017-03-19T02:33:37.251Z,69.29
2017-03-19T02:34:17.893Z,69.23
2017-03-19T02:34:58.599Z,68.85
2017-03-19T02:35:39.201Z,69.04
2017-03-19T02:36:19.805Z,68.76
2017-03-19T02:37:00.421Z,68.85
2017-03-19T02:37:40.996Z,69.13
2017-03-19T02:38:21.599Z,69.04
2017-03-19T02:39:02.162Z,68.85
2017-03-19T02:39:42.805Z,69.04
2017-03-19T02:40:23.399Z,68.66
2017-03-19T02:41:04.000Z,68.66
2017-03-19T02:41:44.561Z,68.66
2017-03-19T02:42:25.155Z,68.48
2017-03-19T02:43:05.767Z,68.38
2017-03-19T02:43:46.374Z,68.38
2017-03-19T02:44:26.967Z,68.48
2017-03-19T02:45:07.544Z,68.48
2017-03-19T02:45:48.120Z,68.38
2017-03-19T02:46:28.720Z,68.48
2017-03-19T02:47:09.289Z,68.57
2017-03-19T02:47:49.888Z,68.57
2017-03-19T02:48:30.518Z,68.48
2017-03-19T02:49:11.107Z,68.38
2017-03-19T02:49:51.689Z,68.48
2017-03-19T02:50:32.320Z,68.48
2017-03-19T02:51:12.901Z,68.38
2017-03-19T02:51:53.497Z,68.1
2017-03-19T02:52:34.076Z,68.57
2017-03-19T02:53:14.642Z,68.19
2017-03-19T02:53:55.241Z,68.29
2017-03-19T02:54:35.800Z,68.19
2017-03-19T02:55:16.375Z,68.19
2017-03-19T02:55:57.022Z,68.1
2017-03-19T02:56:37.624Z,67.81
2017-03-19T02:57:18.204Z,68
2017-03-19T02:57:58.814Z,67.9
2017-03-19T02:58:39.387Z,67.81
2017-03-19T02:59:19.992Z,68.29
2017-03-19T03:00:00.582Z,67.43
2017-03-19T03:00:41.164Z,67.43
2017-03-19T03:01:21.770Z,67.81
2017-03-19T03:02:02.363Z,67.9
2017-03-19T03:02:42.945Z,67.71
2017-03-19T03:03:23.556Z,67.9
2017-03-19T03:04:04.120Z,68.38
2017-03-19T03:04:44.740Z,68.29
2017-03-19T03:05:25.347Z,68.19
2017-03-19T03:06:05.927Z,68.19
2017-03-19T03:06:46.542Z,68.29
2017-03-19T03:07:27.139Z,68.19
2017-03-19T03:08:07.722Z,68.19
2017-03-19T03:08:48.305Z,68.57
2017-03-19T03:09:28.949Z,68.29
2017-03-19T03:10:09.545Z,68.19
2017-03-19T03:10:50.153Z,68.38
2017-03-19T03:11:30.712Z,68.19
2017-03-19T03:12:11.306Z,68.57
2017-03-19T03:12:51.910Z,68.29
2017-03-19T03:13:32.490Z,68.19
2017-03-19T03:14:13.072Z,68
2017-03-19T03:14:53.656Z,68.1
2017-03-19T03:15:34.240Z,67.9
2017-03-19T03:16:14.859Z,67.9
2017-03-19T03:16:55.463Z,67.9
2017-03-19T03:17:36.027Z,67.9
2017-03-19T03:18:16.603Z,67.62
2017-03-19T03:18:57.185Z,67.71
2017-03-19T03:19:37.761Z,67.9
2017-03-19T03:20:18.392Z,68.19
2017-03-19T03:20:58.974Z,67.43
2017-03-19T03:21:39.585Z,68.29
2017-03-19T03:22:20.160Z,67.62
2017-03-19T03:23:00.734Z,67.52
2017-03-19T03:23:41.362Z,67.52
2017-03-19T03:24:21.964Z,68.1
2017-03-19T03:25:02.559Z,68
2017-03-19T03:25:43.165Z,67.33
2017-03-19T03:26:23.762Z,67.71
2017-03-19T03:27:04.339Z,67.43
2017-03-19T03:27:44.933Z,67.62
2017-03-19T03:28:25.535Z,68.29
2017-03-19T03:29:06.155Z,68
2017-03-19T03:29:46.727Z,68.1
2017-03-19T03:30:27.321Z,67.33
2017-03-19T03:31:07.901Z,67.24
2017-03-19T03:31:48.488Z,67.62
2017-03-19T03:32:29.096Z,67.52
2017-03-19T03:33:09.706Z,67.52
2017-03-19T03:33:50.296Z,67.87
2017-03-19T03:34:30.898Z,68.35
2017-03-19T03:35:11.499Z,68.57
2017-03-19T03:35:52.072Z,68.48
2017-03-19T03:36:32.654Z,68.54
2017-03-19T03:37:13.270Z,68.44
2017-03-19T03:37:53.856Z,68.48
2017-03-19T03:38:34.482Z,68.66
2017-03-19T03:39:15.056Z,68.44
2017-03-19T03:39:55.691Z,68.48
2017-03-19T03:40:36.237Z,68.48
2017-03-19T03:41:16.868Z,68.48
2017-03-19T03:41:57.459Z,68.25
2017-03-19T03:42:38.027Z,68.25
2017-03-19T03:43:18.598Z,68.38
2017-03-19T03:43:59.195Z,68.15
2017-03-19T03:44:39.783Z,68.54
2017-03-19T03:45:20.364Z,68.38
2017-03-19T03:46:00.998Z,68.54
2017-03-19T03:46:41.600Z,68.63
2017-03-19T03:47:22.253Z,68.63
2017-03-19T03:48:02.833Z,68.63
2017-03-19T03:48:43.438Z,68.54
2017-03-19T03:49:24.047Z,68.54
2017-03-19T03:50:04.621Z,68.54
2017-03-19T03:50:45.184Z,68.82
2017-03-19T03:51:25.777Z,68.73
2017-03-19T03:52:06.368Z,68.44
2017-03-19T03:52:46.973Z,68.54
2017-03-19T03:53:27.557Z,68.54
2017-03-19T03:54:08.142Z,68.54
2017-03-19T03:54:48.743Z,68.63
2017-03-19T03:55:29.318Z,68.15
2017-03-19T03:56:09.894Z,68.54
2017-03-19T03:56:50.500Z,68.44
2017-03-19T03:57:31.092Z,68.54
2017-03-19T03:58:11.668Z,68.54
2017-03-19T03:58:52.235Z,69.2
2017-03-19T03:59:32.836Z,69.1
2017-03-19T04:00:13.462Z,69.2
2017-03-19T04:00:54.057Z,69.01
2017-03-19T04:01:34.647Z,69.1
2017-03-19T04:02:15.267Z,69.1
2017-03-19T04:02:55.859Z,69.2
2017-03-19T04:03:36.449Z,69.29
2017-03-19T04:04:17.064Z,69.1
2017-03-19T04:04:57.704Z,69.1
2017-03-19T04:05:38.270Z,69.2
2017-03-19T04:06:18.886Z,69.1
2017-03-19T04:06:59.454Z,69.77
2017-03-19T04:07:40.022Z,69.96
2017-03-19T04:08:20.602Z,69.67
2017-03-19T04:09:01.205Z,69.77
2017-03-19T04:09:41.766Z,69.67
2017-03-19T04:10:22.392Z,69.57
2017-03-19T04:11:02.982Z,69.77
2017-03-19T04:11:43.592Z,69.96
2017-03-19T04:12:24.188Z,69.86
2017-03-19T04:13:04.778Z,70.05
2017-03-19T04:13:45.370Z,70.05
2017-03-19T04:14:25.975Z,69.86
2017-03-19T04:15:06.524Z,69.77
2017-03-19T04:15:47.104Z,69.77
2017-03-19T04:16:27.690Z,69.77
2017-03-19T04:17:08.311Z,69.57
2017-03-19T04:17:48.873Z,69.48
2017-03-19T04:18:29.488Z,69.77
2017-03-19T04:19:10.064Z,69.77
2017-03-19T04:19:50.650Z,69.86
2017-03-19T04:20:31.232Z,70.15
2017-03-19T04:21:11.804Z,69.86
2017-03-19T04:21:52.402Z,70.05
2017-03-19T04:22:33.008Z,70.62
2017-03-19T04:23:13.576Z,70.34
2017-03-19T04:23:54.172Z,70.34
2017-03-19T04:24:34.751Z,70.34
2017-03-19T04:25:15.333Z,70.53
2017-03-19T04:25:55.919Z,70.43
2017-03-19T04:26:36.504Z,69.77
2017-03-19T04:27:17.123Z,69.86
2017-03-19T04:27:57.707Z,70.05
2017-03-19T04:28:38.293Z,70.05
2017-03-19T04:29:18.867Z,70.05
2017-03-19T04:29:59.510Z,70.24
2017-03-19T04:30:40.096Z,70.34
2017-03-19T04:31:20.700Z,70.05
2017-03-19T04:32:01.289Z,69.77
2017-03-19T04:32:41.876Z,70.53
2017-03-19T04:33:22.465Z,70.34
2017-03-19T04:34:03.032Z,70.24
2017-03-19T04:34:43.608Z,70.62
2017-03-19T04:35:24.250Z,70.15
2017-03-19T04:36:04.818Z,70.24
2017-03-19T04:36:45.446Z,70.62
2017-03-19T04:37:26.020Z,70.72
2017-03-19T04:38:06.610Z,70.72
2017-03-19T04:38:47.227Z,70.53
2017-03-19T04:39:27.805Z,70.53
2017-03-19T04:40:08.373Z,70.72
2017-03-19T04:40:48.968Z,70.53
2017-03-19T04:41:29.560Z,70.53
2017-03-19T04:42:10.211Z,70.72
2017-03-19T04:42:50.793Z,70.62
2017-03-19T04:43:31.391Z,70.72
2017-03-19T04:44:11.959Z,70.62
2017-03-19T04:44:52.540Z,70.62
2017-03-19T04:45:33.112Z,70.62
2017-03-19T04:46:13.710Z,70.62
2017-03-19T04:46:54.292Z,70.62
2017-03-19T04:47:34.927Z,70.53
2017-03-19T04:48:15.575Z,70.53
2017-03-19T04:48:56.201Z,70.43
2017-03-19T04:49:36.782Z,70.43
2017-03-19T04:50:17.371Z,70.53
2017-03-19T04:50:57.966Z,70.43
2017-03-19T04:51:38.569Z,70.43
2017-03-19T04:52:19.118Z,70.43
2017-03-19T04:52:59.714Z,70.53
2017-03-19T04:53:40.347Z,70.43
2017-03-19T04:54:20.920Z,70.62
2017-03-19T04:55:01.503Z,70.62
2017-03-19T04:55:42.129Z,70.87
2017-03-19T04:56:22.713Z,70.78
2017-03-19T04:57:03.322Z,71
2017-03-19T04:57:43.911Z,70.9
2017-03-19T04:58:24.495Z,71
2017-03-19T04:59:05.065Z,70.62
2017-03-19T04:59:45.649Z,70.72
2017-03-19T05:00:26.280Z,70.81
2017-03-19T05:01:06.955Z,70.62
2017-03-19T05:01:47.523Z,70.72
2017-03-19T05:02:28.108Z,70.62
2017-03-19T05:03:08.686Z,70.34
2017-03-19T05:03:49.307Z,70.62
2017-03-19T05:04:29.906Z,70.43
2017-03-19T05:05:10.492Z,70.53
2017-03-19T05:05:51.057Z,70.34
2017-03-19T05:06:31.639Z,70.72
2017-03-19T05:07:12.210Z,70.53
2017-03-19T05:07:52.812Z,70.62
2017-03-19T05:08:33.392Z,70.53
2017-03-19T05:10:46.497Z,70.9
2017-03-19T05:11:27.058Z,70.81
2017-03-19T05:12:07.621Z,70.9
2017-03-19T05:12:48.202Z,70.9
2017-03-19T05:13:28.789Z,71
2017-03-19T05:14:09.345Z,70.9
2017-03-19T05:14:49.938Z,71
2017-03-19T05:15:30.524Z,70.9
2017-03-19T05:16:11.139Z,70.9
2017-03-19T05:16:51.723Z,71.09
2017-03-19T05:17:32.361Z,71
2017-03-19T05:18:12.958Z,70.81
2017-03-19T05:18:53.541Z,70.9
2017-03-19T05:19:34.103Z,71
2017-03-19T05:20:14.697Z,70.9
2017-03-19T05:20:55.270Z,70.72
2017-03-19T05:21:35.868Z,70.81
2017-03-19T05:22:16.431Z,70.9
2017-03-19T05:22:57.013Z,70.9
2017-03-19T05:23:37.580Z,70.9
2017-03-19T05:24:18.162Z,70.81
2017-03-19T05:24:58.758Z,70.72
2017-03-19T05:25:39.365Z,70.81
2017-03-19T05:26:19.932Z,71
2017-03-19T05:27:00.517Z,70.9
2017-03-19T05:27:41.102Z,71.57
2017-03-19T05:28:21.706Z,71.38
2017-03-19T05:29:02.315Z,71.09
2017-03-19T05:29:42.876Z,71.09
2017-03-19T05:30:23.459Z,71.28
2017-03-19T05:31:04.084Z,71.28
2017-03-19T05:31:44.681Z,71.38
2017-03-19T05:32:25.290Z,71.47
2017-03-19T05:33:05.870Z,71.47
2017-03-19T05:33:46.460Z,71.38
2017-03-19T05:34:27.084Z,71.09
2017-03-19T05:35:07.667Z,71.28
2017-03-19T05:35:48.273Z,71.47
2017-03-19T05:36:28.913Z,71.47
2017-03-19T05:37:09.698Z,71.76
2017-03-19T05:37:50.312Z,71.76
2017-03-19T05:38:30.891Z,72.04
2017-03-19T05:39:11.509Z,72.04
2017-03-19T05:39:52.090Z,71.85
2017-03-19T05:40:32.734Z,71.76
2017-03-19T05:41:13.260Z,72.1
2017-03-19T05:41:53.891Z,72.04
2017-03-19T05:42:34.468Z,72.04
2017-03-19T05:43:15.124Z,72.33
2017-03-19T05:43:55.756Z,71.85
2017-03-19T05:44:36.362Z,72.33
2017-03-19T05:45:16.934Z,72.23
2017-03-19T05:45:57.538Z,72.14
2017-03-19T05:46:38.112Z,72.33
2017-03-19T05:47:18.708Z,72.04
2017-03-19T05:47:59.313Z,72.52
2017-03-19T05:48:39.904Z,72.23
2017-03-19T05:49:20.533Z,72.14
2017-03-19T05:50:01.179Z,72.04
2017-03-19T05:50:41.744Z,72.14
2017-03-19T05:51:22.343Z,72.23
2017-03-19T05:52:02.949Z,72.14
2017-03-19T05:52:43.577Z,72.23
2017-03-19T05:53:24.161Z,71.95
2017-03-19T05:54:04.814Z,71.85
2017-03-19T05:54:45.408Z,72.57
2017-03-19T05:55:26.106Z,72.67
2017-03-19T05:56:06.659Z,72.77
2017-03-19T05:56:47.316Z,73.71
2017-03-19T05:57:27.905Z,73.14
2017-03-19T05:58:08.610Z,73.9
2017-03-19T05:58:49.113Z,73.8
2017-03-19T05:59:29.691Z,73.33
2017-03-19T06:00:10.275Z,74.18
2017-03-19T06:00:50.860Z,74.18
2017-03-19T06:01:31.466Z,74.09
2017-03-19T06:02:12.077Z,74.28
2017-03-19T06:02:52.709Z,74.28
2017-03-19T06:03:33.295Z,74.56
2017-03-19T06:04:13.891Z,74.37
2017-03-19T06:04:54.497Z,74.37
2017-03-19T06:05:35.056Z,74.28
2017-03-19T06:06:15.647Z,74.37
2017-03-19T06:06:56.242Z,74.09
2017-03-19T06:07:36.813Z,74.18
2017-03-19T06:08:17.386Z,74.18
2017-03-19T06:08:57.971Z,74.09
2017-03-19T06:09:38.538Z,74.18
2017-03-19T06:10:19.152Z,74.37
2017-03-19T06:10:59.734Z,74.09
2017-03-19T06:11:40.368Z,73.43
2017-03-19T06:12:20.952Z,73.52
2017-03-19T06:13:01.557Z,73.71
2017-03-19T06:13:42.105Z,73.43
2017-03-19T06:14:22.705Z,73.52
2017-03-19T06:15:03.289Z,73.8
2017-03-19T06:15:43.875Z,74.18
2017-03-19T06:16:24.483Z,74.18
2017-03-19T06:17:05.070Z,73.99
2017-03-19T06:17:45.657Z,73.9
2017-03-19T06:18:26.267Z,74.28
2017-03-19T06:19:06.855Z,74.18
2017-03-19T06:19:47.435Z,74.09
2017-03-19T06:20:28.099Z,74.09
2017-03-19T06:21:08.676Z,74.66
2017-03-19T06:21:49.291Z,74.47
2017-03-19T06:22:29.863Z,74.56
2017-03-19T06:23:10.442Z,74.28
2017-03-19T06:23:51.024Z,74.37
2017-03-19T06:24:31.667Z,74.47
2017-03-19T06:25:12.283Z,74.37
2017-03-19T06:25:52.894Z,74.28
2017-03-19T06:26:33.484Z,74.56
2017-03-19T06:27:14.184Z,73.99
2017-03-19T06:27:54.777Z,74.09
2017-03-19T06:28:35.433Z,74.37
2017-03-19T06:29:16.011Z,74.28
2017-03-19T06:29:56.571Z,74.18
2017-03-19T06:30:37.140Z,73.9
2017-03-19T06:31:17.747Z,74.47
2017-03-19T06:31:58.312Z,74.56
2017-03-19T06:32:38.892Z,74.56
2017-03-19T06:33:19.506Z,74.75
2017-03-19T06:34:00.092Z,74.37
2017-03-19T06:34:40.693Z,74.85
2017-03-19T06:35:21.276Z,75.04
2017-03-19T06:36:01.835Z,75.23
2017-03-19T06:36:42.407Z,74.75
2017-03-19T06:37:23.017Z,74.95
2017-03-19T06:38:03.595Z,75.6
2017-03-19T06:38:44.229Z,75.6
2017-03-19T06:39:24.775Z,75.42
2017-03-19T06:40:05.398Z,75.42
2017-03-19T06:40:45.994Z,75.32
2017-03-19T06:41:26.634Z,75.6
2017-03-19T06:42:07.258Z,75.42
2017-03-19T06:42:47.908Z,75.42
2017-03-19T06:43:28.435Z,75.51
2017-03-19T06:44:09.090Z,75.6
2017-03-19T06:44:49.679Z,75.51
2017-03-19T06:45:30.283Z,75.23
2017-03-19T06:46:10.883Z,75.42
2017-03-19T06:46:51.529Z,75.32
2017-03-19T06:47:32.139Z,75.42
2017-03-19T06:48:12.763Z,75.32
2017-03-19T06:48:53.352Z,75.23
2017-03-19T06:49:33.956Z,75.42
2017-03-19T06:50:14.541Z,75.42
2017-03-19T06:50:55.129Z,75.6
2017-03-19T06:51:35.683Z,75.51
2017-03-19T06:52:16.263Z,74.85
2017-03-19T06:52:56.891Z,75.04
2017-03-19T06:53:37.571Z,74.85
2017-03-19T06:54:18.125Z,74.85
2017-03-19T06:54:58.823Z,75.13
2017-03-19T06:55:39.428Z,75.6
2017-03-19T06:56:20.015Z,75.32
2017-03-19T06:57:00.633Z,75.26
2017-03-19T06:57:41.218Z,75.55
2017-03-19T06:58:21.840Z,75.07
2017-03-19T06:59:02.415Z,75.26
2017-03-19T06:59:43.067Z,74.88
2017-03-19T07:00:23.659Z,74.79
2017-03-19T07:01:04.280Z,74.79
2017-03-19T07:01:44.889Z,74.88
2017-03-19T07:02:25.600Z,74.88
2017-03-19T07:03:06.232Z,74.6
2017-03-19T07:03:46.928Z,74.6
2017-03-19T07:04:27.617Z,73.94
2017-03-19T07:05:08.251Z,74.51
2017-03-19T07:05:48.808Z,74.41
2017-03-19T07:06:29.401Z,74.6
2017-03-19T07:07:10.007Z,74.6
2017-03-19T07:07:50.582Z,74.41
2017-03-19T07:08:31.185Z,74.51
2017-03-19T07:09:11.776Z,74.6
2017-03-19T07:09:52.366Z,74.69
2017-03-19T07:10:32.984Z,74.6
2017-03-19T07:11:13.620Z,74.69
2017-03-19T07:11:54.227Z,74.41
2017-03-19T07:12:34.860Z,74.6
2017-03-19T07:13:15.479Z,74.22
2017-03-19T07:13:56.116Z,74.03
2017-03-19T07:14:36.723Z,73.94
2017-03-19T07:15:17.307Z,73.94
2017-03-19T07:15:57.914Z,73.37
2017-03-19T07:16:38.512Z,73.56
2017-03-19T07:17:19.136Z,73.94
2017-03-19T07:17:59.776Z,73.56
2017-03-19T07:18:40.391Z,73.46
2017-03-19T07:19:20.992Z,73.56
2017-03-19T07:20:01.589Z,73.46
2017-03-19T07:20:42.175Z,73.56
2017-03-19T07:21:22.769Z,73.75
2017-03-19T07:22:03.369Z,73.56
2017-03-19T07:22:43.955Z,73.65
2017-03-19T07:23:24.540Z,73.18
2017-03-19T07:24:05.163Z,72.89
2017-03-19T07:24:45.788Z,72.99
2017-03-19T07:25:26.410Z,72.99
2017-03-19T07:26:06.967Z,73.08
2017-03-19T07:26:47.548Z,73.08
2017-03-19T07:27:28.153Z,73.27
2017-03-19T07:28:08.768Z,72.89
2017-03-19T07:28:49.386Z,73.56
2017-03-19T07:29:30.022Z,73.08
2017-03-19T07:30:10.581Z,73.18
2017-03-19T07:30:51.169Z,73.08
2017-03-19T07:31:31.811Z,73.18
2017-03-19T07:32:12.381Z,72.99
2017-03-19T07:32:52.978Z,73.27
2017-03-19T07:33:33.579Z,73.08
2017-03-19T07:34:14.323Z,72.99
2017-03-19T07:34:55.030Z,73.18
2017-03-19T07:35:35.612Z,73.08
2017-03-19T07:36:16.188Z,72.71
2017-03-19T07:36:56.777Z,72.33
2017-03-19T07:37:37.369Z,72.52
2017-03-19T07:38:17.948Z,72.61
2017-03-19T07:38:58.512Z,72.23
2017-03-19T07:39:39.450Z,72.52
2017-03-19T07:40:20.182Z,72.8
2017-03-19T07:41:00.814Z,73.08
2017-03-19T07:41:41.382Z,73.08
2017-03-19T07:42:21.977Z,72.71
2017-03-19T07:43:05.479Z,73.27
2017-03-19T07:43:46.092Z,72.8
2017-03-19T07:44:26.722Z,73.18
2017-03-19T07:45:07.335Z,72.64
2017-03-19T07:45:47.952Z,72.33
2017-03-19T07:46:28.560Z,72.33
2017-03-19T07:47:09.164Z,72.23
2017-03-19T07:47:49.784Z,72.23
2017-03-19T07:48:30.377Z,72.04
2017-03-19T07:49:10.985Z,71.85
2017-03-19T07:49:51.533Z,72.04
2017-03-19T07:50:32.210Z,72.71
2017-03-19T07:51:12.786Z,72.61
2017-03-19T07:51:53.424Z,72.52
2017-03-19T07:52:34.046Z,72.52
2017-03-19T07:53:14.663Z,72.61
2017-03-19T07:53:55.275Z,72.17
2017-03-19T07:54:35.860Z,71.95
2017-03-19T07:55:16.460Z,72.42
2017-03-19T07:55:57.070Z,72.33
2017-03-19T07:56:37.673Z,72.45
2017-03-19T07:57:18.280Z,71.98
2017-03-19T07:57:58.908Z,72.04
2017-03-19T07:58:39.500Z,72.14
2017-03-19T07:59:20.091Z,72.08
2017-03-19T08:00:00.686Z,72.14
2017-03-19T08:00:41.262Z,72.04
2017-03-19T08:01:21.853Z,72.04
2017-03-19T08:02:02.479Z,72.14
2017-03-19T08:02:43.102Z,72.14
2017-03-19T08:03:23.710Z,72.42
2017-03-19T08:04:04.332Z,72.23
2017-03-19T08:04:44.918Z,72.33
2017-03-19T08:05:25.529Z,72.42
2017-03-19T08:07:23.280Z,72.14
2017-03-19T08:08:03.886Z,72.55
2017-03-19T08:08:44.450Z,72.61
2017-03-19T08:09:25.035Z,72.45
2017-03-19T08:10:05.674Z,72.36
2017-03-19T08:10:46.280Z,72.08
2017-03-19T08:11:26.867Z,72.08
2017-03-19T08:12:07.485Z,72.17
2017-03-19T08:12:48.063Z,72.27
2017-03-19T08:13:28.643Z,71.7
2017-03-19T08:14:09.264Z,71.89
2017-03-19T08:14:49.861Z,71.8
2017-03-19T08:15:30.514Z,71.8
2017-03-19T08:16:11.083Z,71.32
2017-03-19T08:16:51.665Z,71.13
2017-03-19T08:17:32.291Z,70.94
2017-03-19T08:18:12.823Z,71.13
2017-03-19T08:18:53.445Z,71.03
2017-03-19T08:19:34.016Z,70.47
2017-03-19T08:20:14.602Z,70.65
2017-03-19T08:20:55.219Z,70.65
2017-03-19T08:21:35.822Z,70.84
2017-03-19T08:22:16.398Z,69.8
2017-03-19T08:22:56.989Z,69.9
2017-03-19T08:23:37.566Z,70.37
2017-03-19T08:24:18.156Z,70.37
2017-03-19T08:24:58.780Z,69.71
2017-03-19T08:25:39.402Z,69.9
2017-03-19T08:26:19.972Z,69.52
2017-03-19T08:27:00.558Z,68.95
2017-03-19T08:27:41.152Z,68.95
2017-03-19T08:28:21.751Z,69.13
2017-03-19T08:29:02.473Z,69.33
2017-03-19T08:29:43.015Z,69.8
2017-03-19T08:30:23.660Z,69.99
2017-03-19T08:31:04.226Z,69.8
2017-03-19T08:31:44.807Z,69.8
2017-03-19T08:32:25.392Z,69.52
2017-03-19T08:33:06.038Z,69.99
2017-03-19T08:33:46.638Z,69.8
2017-03-19T08:34:27.247Z,69.61
2017-03-19T08:35:07.849Z,69.8
2017-03-19T08:35:48.550Z,70.09
2017-03-19T08:36:29.217Z,70.09
2017-03-19T08:37:09.827Z,69.71
2017-03-19T08:37:50.446Z,69.8
2017-03-19T08:38:31.086Z,69.61
2017-03-19T08:39:11.689Z,69.04
2017-03-19T08:39:52.282Z,69.61
2017-03-19T08:40:32.929Z,69.13
2017-03-19T08:41:13.596Z,70.18
2017-03-19T08:41:54.186Z,69.61
2017-03-19T08:42:34.814Z,69.99
2017-03-19T08:43:15.490Z,69.42
2017-03-19T08:43:56.134Z,69.33
2017-03-19T08:44:36.763Z,69.04
2017-03-19T08:45:17.380Z,69.13
2017-03-19T08:45:58.013Z,69.13
2017-03-19T08:46:38.654Z,69.04
2017-03-19T08:47:19.294Z,68.48
2017-03-19T08:47:59.974Z,68.1